sensor_id;sensor_type;location;lat;lon;timestamp;P1;durP1;ratioP1;P2;durP2;ratioP2
68655;SDS011;55638;51.122;13.606;2023-02-01T00:00:29;5.80;;;4.18;;
68655;SDS011;55638;51.122;13.606;2023-02-01T00:02:02;5.18;;;3.83;;
68655;SDS011;55638;51.122;13.606;2023-02-01T00:03:34;4.97;;;3.97;;
68655;SDS011;55638;51.122;13.606;2023-02-01T00:05:07;4.40;;;3.65;;
68655;SDS011;55638;51.122;13.606;2023-02-01T00:06:40;4.88;;;3.67;;
68655;SDS011;55638;51.122;13.606;2023-02-01T00:08:11;5.03;;;4.22;;
68655;SDS011;55638;51.122;13.606;2023-02-01T00:09:43;5.43;;;5.03;;
68655;SDS011;55638;51.122;13.606;2023-02-01T00:11:15;5.35;;;4.20;;
68655;SDS011;55638;51.122;13.606;2023-02-01T00:12:47;6.50;;;3.97;;
68655;SDS011;55638;51.122;13.606;2023-02-01T00:14:18;4.15;;;3.75;;
68655;SDS011;55638;51.122;13.606;2023-02-01T00:15:50;5.75;;;3.85;;
68655;SDS011;55638;51.122;13.606;2023-02-01T00:17:22;4.38;;;4.05;;
68655;SDS011;55638;51.122;13.606;2023-02-01T00:18:59;5.85;;;3.80;;
68655;SDS011;55638;51.122;13.606;2023-02-01T00:20:33;4.82;;;3.85;;
68655;SDS011;55638;51.122;13.606;2023-02-01T00:22:04;4.88;;;3.95;;
68655;SDS011;55638;51.122;13.606;2023-02-01T00:23:36;3.78;;;3.40;;
68655;SDS011;55638;51.122;13.606;2023-02-01T00:25:10;5.88;;;3.95;;
68655;SDS011;55638;51.122;13.606;2023-02-01T00:26:42;4.30;;;4.03;;
68655;SDS011;55638;51.122;13.606;2023-02-01T00:28:16;4.40;;;4.00;;
68655;SDS011;55638;51.122;13.606;2023-02-01T00:29:47;5.43;;;4.60;;
68655;SDS011;55638;51.122;13.606;2023-02-01T00:31:19;6.55;;;4.55;;
68655;SDS011;55638;51.122;13.606;2023-02-01T00:32:51;6.38;;;4.30;;
68655;SDS011;55638;51.122;13.606;2023-02-01T00:34:23;4.47;;;4.03;;
68655;SDS011;55638;51.122;13.606;2023-02-01T00:35:58;4.65;;;4.18;;
68655;SDS011;55638;51.122;13.606;2023-02-01T00:37:31;7.95;;;4.45;;
68655;SDS011;55638;51.122;13.606;2023-02-01T00:39:03;3.97;;;3.55;;
68655;SDS011;55638;51.122;13.606;2023-02-01T00:40:35;6.07;;;4.20;;
68655;SDS011;55638;51.122;13.606;2023-02-01T00:42:08;7.30;;;4.50;;
68655;SDS011;55638;51.122;13.606;2023-02-01T00:43:41;5.55;;;3.60;;
68655;SDS011;55638;51.122;13.606;2023-02-01T00:45:14;6.13;;;4.22;;
68655;SDS011;55638;51.122;13.606;2023-02-01T00:46:46;5.30;;;4.57;;
68655;SDS011;55638;51.122;13.606;2023-02-01T00:48:17;6.25;;;4.18;;
68655;SDS011;55638;51.122;13.606;2023-02-01T00:49:49;4.78;;;4.15;;
68655;SDS011;55638;51.122;13.606;2023-02-01T00:51:23;5.07;;;4.32;;
68655;SDS011;55638;51.122;13.606;2023-02-01T00:52:56;5.05;;;3.80;;
68655;SDS011;55638;51.122;13.606;2023-02-01T00:54:28;5.90;;;3.72;;
68655;SDS011;55638;51.122;13.606;2023-02-01T00:55:59;4.78;;;4.38;;
68655;SDS011;55638;51.122;13.606;2023-02-01T00:57:32;5.78;;;4.13;;
68655;SDS011;55638;51.122;13.606;2023-02-01T00:59:04;5.38;;;4.40;;
68655;SDS011;55638;51.122;13.606;2023-02-01T01:00:35;5.28;;;4.18;;
68655;SDS011;55638;51.122;13.606;2023-02-01T01:02:08;7.35;;;4.00;;
68655;SDS011;55638;51.122;13.606;2023-02-01T01:03:49;5.25;;;3.47;;
68655;SDS011;55638;51.122;13.606;2023-02-01T01:05:25;6.43;;;4.03;;
68655;SDS011;55638;51.122;13.606;2023-02-01T01:06:59;4.32;;;3.25;;
68655;SDS011;55638;51.122;13.606;2023-02-01T01:08:30;5.03;;;3.67;;
68655;SDS011;55638;51.122;13.606;2023-02-01T01:10:03;7.47;;;3.85;;
68655;SDS011;55638;51.122;13.606;2023-02-01T01:11:37;6.93;;;4.30;;
68655;SDS011;55638;51.122;13.606;2023-02-01T01:13:10;6.88;;;3.53;;
68655;SDS011;55638;51.122;13.606;2023-02-01T01:14:42;7.60;;;4.53;;
68655;SDS011;55638;51.122;13.606;2023-02-01T01:16:14;4.90;;;3.30;;
68655;SDS011;55638;51.122;13.606;2023-02-01T01:17:46;5.53;;;3.78;;
68655;SDS011;55638;51.122;13.606;2023-02-01T01:19:18;5.63;;;3.55;;
68655;SDS011;55638;51.122;13.606;2023-02-01T01:20:50;7.57;;;4.22;;
68655;SDS011;55638;51.122;13.606;2023-02-01T01:22:21;5.05;;;3.70;;
68655;SDS011;55638;51.122;13.606;2023-02-01T01:23:53;4.97;;;3.38;;
68655;SDS011;55638;51.122;13.606;2023-02-01T01:25:25;4.10;;;3.53;;
68655;SDS011;55638;51.122;13.606;2023-02-01T01:26:57;4.75;;;3.30;;
68655;SDS011;55638;51.122;13.606;2023-02-01T01:28:29;4.72;;;3.58;;
68655;SDS011;55638;51.122;13.606;2023-02-01T01:30:01;5.63;;;3.25;;
68655;SDS011;55638;51.122;13.606;2023-02-01T01:31:32;6.22;;;3.60;;
68655;SDS011;55638;51.122;13.606;2023-02-01T01:33:04;5.82;;;3.78;;
68655;SDS011;55638;51.122;13.606;2023-02-01T01:34:36;4.60;;;3.08;;
68655;SDS011;55638;51.122;13.606;2023-02-01T01:36:08;3.63;;;3.33;;
68655;SDS011;55638;51.122;13.606;2023-02-01T01:37:42;5.93;;;3.30;;
68655;SDS011;55638;51.122;13.606;2023-02-01T01:39:14;5.93;;;3.60;;
68655;SDS011;55638;51.122;13.606;2023-02-01T01:40:46;6.38;;;3.58;;
68655;SDS011;55638;51.122;13.606;2023-02-01T01:42:18;5.18;;;3.33;;
68655;SDS011;55638;51.122;13.606;2023-02-01T01:45:32;5.85;;;3.15;;
68655;SDS011;55638;51.122;13.606;2023-02-01T01:47:05;6.38;;;3.35;;
68655;SDS011;55638;51.122;13.606;2023-02-01T01:48:37;6.97;;;3.45;;
68655;SDS011;55638;51.122;13.606;2023-02-01T01:50:10;6.40;;;3.72;;
68655;SDS011;55638;51.122;13.606;2023-02-01T01:51:49;5.10;;;3.40;;
68655;SDS011;55638;51.122;13.606;2023-02-01T01:53:25;5.70;;;3.35;;
68655;SDS011;55638;51.122;13.606;2023-02-01T01:54:59;8.80;;;3.97;;
68655;SDS011;55638;51.122;13.606;2023-02-01T01:56:31;5.32;;;3.15;;
68655;SDS011;55638;51.122;13.606;2023-02-01T01:58:07;4.55;;;3.33;;
68655;SDS011;55638;51.122;13.606;2023-02-01T01:59:41;6.03;;;3.42;;
68655;SDS011;55638;51.122;13.606;2023-02-01T02:01:18;4.75;;;3.70;;
68655;SDS011;55638;51.122;13.606;2023-02-01T02:02:53;6.65;;;3.85;;
68655;SDS011;55638;51.122;13.606;2023-02-01T02:04:30;4.93;;;2.90;;
68655;SDS011;55638;51.122;13.606;2023-02-01T02:06:05;5.25;;;3.40;;
68655;SDS011;55638;51.122;13.606;2023-02-01T02:07:48;7.68;;;3.45;;
68655;SDS011;55638;51.122;13.606;2023-02-01T02:09:22;6.90;;;3.58;;
68655;SDS011;55638;51.122;13.606;2023-02-01T02:10:54;5.40;;;4.00;;
68655;SDS011;55638;51.122;13.606;2023-02-01T02:12:33;6.07;;;3.58;;
68655;SDS011;55638;51.122;13.606;2023-02-01T02:14:05;6.20;;;3.75;;
68655;SDS011;55638;51.122;13.606;2023-02-01T02:15:42;5.82;;;3.92;;
68655;SDS011;55638;51.122;13.606;2023-02-01T02:31:32;3.53;;;2.88;;
68655;SDS011;55638;51.122;13.606;2023-02-01T02:38:59;8.35;;;2.80;;
68655;SDS011;55638;51.122;13.606;2023-02-01T02:45:01;9.63;;;3.47;;
68655;SDS011;55638;51.122;13.606;2023-02-01T02:46:59;5.22;;;3.28;;
68655;SDS011;55638;51.122;13.606;2023-02-01T02:50:42;5.13;;;3.03;;
68655;SDS011;55638;51.122;13.606;2023-02-01T02:52:38;6.05;;;3.00;;
68655;SDS011;55638;51.122;13.606;2023-02-01T02:54:37;6.10;;;3.10;;
68655;SDS011;55638;51.122;13.606;2023-02-01T02:56:20;7.72;;;3.75;;
68655;SDS011;55638;51.122;13.606;2023-02-01T02:58:13;6.75;;;3.42;;
68655;SDS011;55638;51.122;13.606;2023-02-01T03:00:08;6.70;;;3.13;;
68655;SDS011;55638;51.122;13.606;2023-02-01T03:02:01;8.43;;;3.33;;
68655;SDS011;55638;51.122;13.606;2023-02-01T03:03:52;5.10;;;3.00;;
68655;SDS011;55638;51.122;13.606;2023-02-01T03:05:44;7.90;;;3.22;;
68655;SDS011;55638;51.122;13.606;2023-02-01T03:11:08;6.07;;;3.25;;
68655;SDS011;55638;51.122;13.606;2023-02-01T03:12:42;4.72;;;3.03;;
68655;SDS011;55638;51.122;13.606;2023-02-01T03:14:27;4.00;;;3.22;;
68655;SDS011;55638;51.122;13.606;2023-02-01T03:16:51;6.65;;;3.75;;
68655;SDS011;55638;51.122;13.606;2023-02-01T03:18:04;7.88;;;3.53;;
68655;SDS011;55638;51.122;13.606;2023-02-01T03:19:45;6.50;;;4.25;;
68655;SDS011;55638;51.122;13.606;2023-02-01T03:21:23;4.43;;;3.33;;
68655;SDS011;55638;51.122;13.606;2023-02-01T03:22:59;6.32;;;3.85;;
68655;SDS011;55638;51.122;13.606;2023-02-01T03:24:34;5.80;;;3.72;;
68655;SDS011;55638;51.122;13.606;2023-02-01T03:26:30;6.80;;;3.28;;
68655;SDS011;55638;51.122;13.606;2023-02-01T03:28:07;5.45;;;3.33;;
68655;SDS011;55638;51.122;13.606;2023-02-01T03:29:46;5.63;;;4.15;;
68655;SDS011;55638;51.122;13.606;2023-02-01T03:31:19;4.60;;;3.67;;
68655;SDS011;55638;51.122;13.606;2023-02-01T03:32:53;5.28;;;4.38;;
68655;SDS011;55638;51.122;13.606;2023-02-01T03:34:33;4.05;;;3.70;;
68655;SDS011;55638;51.122;13.606;2023-02-01T03:38:12;6.47;;;4.18;;
68655;SDS011;55638;51.122;13.606;2023-02-01T03:40:00;7.18;;;3.72;;
68655;SDS011;55638;51.122;13.606;2023-02-01T03:41:40;4.65;;;4.20;;
68655;SDS011;55638;51.122;13.606;2023-02-01T03:43:16;5.18;;;4.15;;
68655;SDS011;55638;51.122;13.606;2023-02-01T03:44:53;6.07;;;4.05;;
68655;SDS011;55638;51.122;13.606;2023-02-01T03:46:32;7.32;;;3.85;;
68655;SDS011;55638;51.122;13.606;2023-02-01T03:48:07;6.00;;;4.82;;
68655;SDS011;55638;51.122;13.606;2023-02-01T03:49:44;5.82;;;4.13;;
68655;SDS011;55638;51.122;13.606;2023-02-01T03:51:29;5.35;;;4.50;;
68655;SDS011;55638;51.122;13.606;2023-02-01T03:53:05;5.55;;;4.57;;
68655;SDS011;55638;51.122;13.606;2023-02-01T03:54:40;5.88;;;4.50;;
68655;SDS011;55638;51.122;13.606;2023-02-01T03:56:13;6.32;;;4.80;;
68655;SDS011;55638;51.122;13.606;2023-02-01T03:57:48;9.05;;;5.25;;
68655;SDS011;55638;51.122;13.606;2023-02-01T03:59:24;7.45;;;4.82;;
68655;SDS011;55638;51.122;13.606;2023-02-01T04:00:57;5.97;;;4.53;;
68655;SDS011;55638;51.122;13.606;2023-02-01T04:02:32;4.93;;;4.28;;
68655;SDS011;55638;51.122;13.606;2023-02-01T04:04:04;5.70;;;4.93;;
68655;SDS011;55638;51.122;13.606;2023-02-01T04:05:36;6.65;;;5.03;;
68655;SDS011;55638;51.122;13.606;2023-02-01T04:07:11;7.32;;;5.35;;
68655;SDS011;55638;51.122;13.606;2023-02-01T04:08:43;6.22;;;5.05;;
68655;SDS011;55638;51.122;13.606;2023-02-01T04:10:15;5.55;;;4.70;;
68655;SDS011;55638;51.122;13.606;2023-02-01T04:11:50;6.25;;;5.75;;
68655;SDS011;55638;51.122;13.606;2023-02-01T04:13:21;6.82;;;5.22;;
68655;SDS011;55638;51.122;13.606;2023-02-01T04:14:53;6.75;;;5.28;;
68655;SDS011;55638;51.122;13.606;2023-02-01T04:16:25;8.88;;;6.43;;
68655;SDS011;55638;51.122;13.606;2023-02-01T04:17:57;9.75;;;5.13;;
68655;SDS011;55638;51.122;13.606;2023-02-01T04:19:28;5.70;;;5.00;;
68655;SDS011;55638;51.122;13.606;2023-02-01T04:21:00;5.25;;;4.60;;
68655;SDS011;55638;51.122;13.606;2023-02-01T04:22:33;7.18;;;5.30;;
68655;SDS011;55638;51.122;13.606;2023-02-01T04:24:05;6.75;;;4.97;;
68655;SDS011;55638;51.122;13.606;2023-02-01T04:25:37;5.03;;;4.40;;
68655;SDS011;55638;51.122;13.606;2023-02-01T04:27:09;7.55;;;5.47;;
68655;SDS011;55638;51.122;13.606;2023-02-01T04:28:41;8.77;;;5.55;;
68655;SDS011;55638;51.122;13.606;2023-02-01T04:30:13;6.40;;;5.68;;
68655;SDS011;55638;51.122;13.606;2023-02-01T04:31:45;6.97;;;5.05;;
68655;SDS011;55638;51.122;13.606;2023-02-01T04:33:17;5.45;;;4.95;;
68655;SDS011;55638;51.122;13.606;2023-02-01T04:34:49;5.85;;;5.28;;
68655;SDS011;55638;51.122;13.606;2023-02-01T04:36:21;10.70;;;5.57;;
68655;SDS011;55638;51.122;13.606;2023-02-01T04:37:53;7.63;;;4.75;;
68655;SDS011;55638;51.122;13.606;2023-02-01T04:39:25;6.30;;;5.10;;
68655;SDS011;55638;51.122;13.606;2023-02-01T04:40:57;6.78;;;5.07;;
68655;SDS011;55638;51.122;13.606;2023-02-01T04:42:28;6.78;;;5.18;;
68655;SDS011;55638;51.122;13.606;2023-02-01T04:44:00;6.82;;;4.88;;
68655;SDS011;55638;51.122;13.606;2023-02-01T04:45:32;5.85;;;5.32;;
68655;SDS011;55638;51.122;13.606;2023-02-01T04:47:04;6.95;;;5.00;;
68655;SDS011;55638;51.122;13.606;2023-02-01T04:48:36;5.03;;;4.57;;
68655;SDS011;55638;51.122;13.606;2023-02-01T04:50:08;7.07;;;5.85;;
68655;SDS011;55638;51.122;13.606;2023-02-01T04:51:42;8.65;;;5.32;;
68655;SDS011;55638;51.122;13.606;2023-02-01T04:53:14;9.27;;;5.22;;
68655;SDS011;55638;51.122;13.606;2023-02-01T04:54:46;5.75;;;5.05;;
68655;SDS011;55638;51.122;13.606;2023-02-01T04:56:18;6.60;;;4.80;;
68655;SDS011;55638;51.122;13.606;2023-02-01T04:57:50;8.77;;;4.68;;
68655;SDS011;55638;51.122;13.606;2023-02-01T04:59:22;8.07;;;5.45;;
68655;SDS011;55638;51.122;13.606;2023-02-01T05:00:53;6.47;;;4.95;;
68655;SDS011;55638;51.122;13.606;2023-02-01T05:02:25;5.55;;;5.05;;
68655;SDS011;55638;51.122;13.606;2023-02-01T05:03:57;5.93;;;5.32;;
68655;SDS011;55638;51.122;13.606;2023-02-01T05:05:29;6.95;;;4.85;;
68655;SDS011;55638;51.122;13.606;2023-02-01T05:07:01;6.68;;;4.10;;
68655;SDS011;55638;51.122;13.606;2023-02-01T05:08:33;6.88;;;4.57;;
68655;SDS011;55638;51.122;13.606;2023-02-01T05:10:05;5.97;;;4.68;;
68655;SDS011;55638;51.122;13.606;2023-02-01T05:11:37;7.78;;;5.10;;
68655;SDS011;55638;51.122;13.606;2023-02-01T05:13:29;7.30;;;3.95;;
68655;SDS011;55638;51.122;13.606;2023-02-01T05:15:19;5.50;;;3.25;;
68655;SDS011;55638;51.122;13.606;2023-02-01T05:16:51;6.07;;;4.50;;
68655;SDS011;55638;51.122;13.606;2023-02-01T05:18:23;7.45;;;4.72;;
68655;SDS011;55638;51.122;13.606;2023-02-01T05:19:54;8.07;;;4.93;;
68655;SDS011;55638;51.122;13.606;2023-02-01T05:21:26;5.53;;;4.15;;
68655;SDS011;55638;51.122;13.606;2023-02-01T05:22:58;7.25;;;5.05;;
68655;SDS011;55638;51.122;13.606;2023-02-01T05:24:30;6.32;;;5.43;;
68655;SDS011;55638;51.122;13.606;2023-02-01T05:26:01;6.13;;;5.10;;
68655;SDS011;55638;51.122;13.606;2023-02-01T05:27:33;7.68;;;4.75;;
68655;SDS011;55638;51.122;13.606;2023-02-01T05:29:05;8.40;;;4.55;;
68655;SDS011;55638;51.122;13.606;2023-02-01T05:30:38;7.72;;;4.28;;
68655;SDS011;55638;51.122;13.606;2023-02-01T05:32:12;6.32;;;4.20;;
68655;SDS011;55638;51.122;13.606;2023-02-01T05:33:53;5.15;;;3.78;;
68655;SDS011;55638;51.122;13.606;2023-02-01T05:35:25;6.10;;;4.38;;
68655;SDS011;55638;51.122;13.606;2023-02-01T05:36:56;10.15;;;5.68;;
68655;SDS011;55638;51.122;13.606;2023-02-01T05:38:28;8.27;;;5.25;;
68655;SDS011;55638;51.122;13.606;2023-02-01T05:40:01;6.45;;;4.32;;
68655;SDS011;55638;51.122;13.606;2023-02-01T05:41:32;7.60;;;4.97;;
68655;SDS011;55638;51.122;13.606;2023-02-01T05:43:04;7.65;;;5.05;;
68655;SDS011;55638;51.122;13.606;2023-02-01T05:44:36;10.70;;;4.47;;
68655;SDS011;55638;51.122;13.606;2023-02-01T05:46:08;7.57;;;4.60;;
68655;SDS011;55638;51.122;13.606;2023-02-01T05:47:42;6.30;;;4.10;;
68655;SDS011;55638;51.122;13.606;2023-02-01T05:49:14;8.60;;;5.03;;
68655;SDS011;55638;51.122;13.606;2023-02-01T05:50:45;10.88;;;4.53;;
68655;SDS011;55638;51.122;13.606;2023-02-01T05:52:17;6.60;;;4.40;;
68655;SDS011;55638;51.122;13.606;2023-02-01T05:53:50;7.28;;;4.68;;
68655;SDS011;55638;51.122;13.606;2023-02-01T05:55:22;8.55;;;5.13;;
68655;SDS011;55638;51.122;13.606;2023-02-01T05:56:54;12.40;;;6.07;;
68655;SDS011;55638;51.122;13.606;2023-02-01T05:58:26;6.90;;;5.97;;
68655;SDS011;55638;51.122;13.606;2023-02-01T05:59:58;9.35;;;5.57;;
68655;SDS011;55638;51.122;13.606;2023-02-01T06:01:31;6.28;;;4.50;;
68655;SDS011;55638;51.122;13.606;2023-02-01T06:03:02;9.70;;;4.88;;
68655;SDS011;55638;51.122;13.606;2023-02-01T06:04:34;7.35;;;5.20;;
68655;SDS011;55638;51.122;13.606;2023-02-01T06:06:06;7.80;;;5.38;;
68655;SDS011;55638;51.122;13.606;2023-02-01T06:07:38;7.45;;;5.45;;
68655;SDS011;55638;51.122;13.606;2023-02-01T06:09:10;7.78;;;5.50;;
68655;SDS011;55638;51.122;13.606;2023-02-01T06:10:41;8.95;;;5.18;;
68655;SDS011;55638;51.122;13.606;2023-02-01T06:12:13;7.20;;;5.90;;
68655;SDS011;55638;51.122;13.606;2023-02-01T06:13:45;9.15;;;5.93;;
68655;SDS011;55638;51.122;13.606;2023-02-01T06:15:17;5.05;;;4.65;;
68655;SDS011;55638;51.122;13.606;2023-02-01T06:16:49;6.53;;;5.22;;
68655;SDS011;55638;51.122;13.606;2023-02-01T06:18:21;8.50;;;5.63;;
68655;SDS011;55638;51.122;13.606;2023-02-01T06:19:53;6.10;;;5.50;;
68655;SDS011;55638;51.122;13.606;2023-02-01T06:21:24;9.13;;;5.07;;
68655;SDS011;55638;51.122;13.606;2023-02-01T06:22:56;7.40;;;4.97;;
68655;SDS011;55638;51.122;13.606;2023-02-01T06:24:28;7.35;;;4.93;;
68655;SDS011;55638;51.122;13.606;2023-02-01T06:26:04;7.47;;;5.20;;
68655;SDS011;55638;51.122;13.606;2023-02-01T06:27:38;7.18;;;5.13;;
68655;SDS011;55638;51.122;13.606;2023-02-01T06:29:10;8.25;;;4.90;;
68655;SDS011;55638;51.122;13.606;2023-02-01T06:30:43;9.05;;;4.88;;
68655;SDS011;55638;51.122;13.606;2023-02-01T06:32:17;7.97;;;4.82;;
68655;SDS011;55638;51.122;13.606;2023-02-01T06:33:49;7.35;;;4.68;;
68655;SDS011;55638;51.122;13.606;2023-02-01T06:35:22;6.75;;;4.65;;
68655;SDS011;55638;51.122;13.606;2023-02-01T06:36:54;8.07;;;5.80;;
68655;SDS011;55638;51.122;13.606;2023-02-01T06:38:26;7.88;;;4.85;;
68655;SDS011;55638;51.122;13.606;2023-02-01T06:39:58;5.65;;;4.63;;
68655;SDS011;55638;51.122;13.606;2023-02-01T06:41:30;7.22;;;5.65;;
68655;SDS011;55638;51.122;13.606;2023-02-01T06:43:02;8.48;;;4.72;;
68655;SDS011;55638;51.122;13.606;2023-02-01T06:44:34;7.65;;;5.13;;
68655;SDS011;55638;51.122;13.606;2023-02-01T06:46:07;7.10;;;5.40;;
68655;SDS011;55638;51.122;13.606;2023-02-01T06:47:41;6.93;;;4.75;;
68655;SDS011;55638;51.122;13.606;2023-02-01T06:49:13;8.02;;;4.32;;
68655;SDS011;55638;51.122;13.606;2023-02-01T06:50:45;8.07;;;4.78;;
68655;SDS011;55638;51.122;13.606;2023-02-01T06:52:17;6.80;;;5.80;;
68655;SDS011;55638;51.122;13.606;2023-02-01T06:53:49;7.00;;;5.03;;
68655;SDS011;55638;51.122;13.606;2023-02-01T06:55:20;6.93;;;5.35;;
68655;SDS011;55638;51.122;13.606;2023-02-01T06:56:52;6.80;;;4.65;;
68655;SDS011;55638;51.122;13.606;2023-02-01T06:58:27;7.03;;;5.25;;
68655;SDS011;55638;51.122;13.606;2023-02-01T07:00:03;8.35;;;5.28;;
68655;SDS011;55638;51.122;13.606;2023-02-01T07:01:36;7.40;;;4.88;;
68655;SDS011;55638;51.122;13.606;2023-02-01T07:03:08;6.05;;;4.57;;
68655;SDS011;55638;51.122;13.606;2023-02-01T07:04:39;6.80;;;5.53;;
68655;SDS011;55638;51.122;13.606;2023-02-01T07:06:11;7.18;;;5.00;;
68655;SDS011;55638;51.122;13.606;2023-02-01T07:07:43;6.10;;;5.00;;
68655;SDS011;55638;51.122;13.606;2023-02-01T07:09:15;6.95;;;6.32;;
68655;SDS011;55638;51.122;13.606;2023-02-01T07:10:47;5.97;;;5.43;;
68655;SDS011;55638;51.122;13.606;2023-02-01T07:12:19;8.57;;;5.05;;
68655;SDS011;55638;51.122;13.606;2023-02-01T07:13:51;6.43;;;5.55;;
68655;SDS011;55638;51.122;13.606;2023-02-01T07:15:22;7.95;;;5.88;;
68655;SDS011;55638;51.122;13.606;2023-02-01T07:16:55;8.85;;;6.00;;
68655;SDS011;55638;51.122;13.606;2023-02-01T07:18:27;7.25;;;6.47;;
68655;SDS011;55638;51.122;13.606;2023-02-01T07:20:00;10.93;;;6.60;;
68655;SDS011;55638;51.122;13.606;2023-02-01T07:21:32;7.38;;;5.93;;
68655;SDS011;55638;51.122;13.606;2023-02-01T07:23:04;8.38;;;6.60;;
68655;SDS011;55638;51.122;13.606;2023-02-01T07:24:36;8.07;;;5.80;;
68655;SDS011;55638;51.122;13.606;2023-02-01T07:26:09;10.23;;;7.00;;
68655;SDS011;55638;51.122;13.606;2023-02-01T07:27:44;8.27;;;6.95;;
68655;SDS011;55638;51.122;13.606;2023-02-01T07:29:18;7.20;;;6.30;;
68655;SDS011;55638;51.122;13.606;2023-02-01T07:30:50;6.53;;;5.93;;
68655;SDS011;55638;51.122;13.606;2023-02-01T07:32:22;6.05;;;5.43;;
68655;SDS011;55638;51.122;13.606;2023-02-01T07:33:54;5.78;;;5.30;;
68655;SDS011;55638;51.122;13.606;2023-02-01T07:35:28;6.47;;;5.47;;
68655;SDS011;55638;51.122;13.606;2023-02-01T07:37:00;8.05;;;6.43;;
68655;SDS011;55638;51.122;13.606;2023-02-01T07:38:32;6.35;;;5.80;;
68655;SDS011;55638;51.122;13.606;2023-02-01T07:40:04;8.45;;;5.07;;
68655;SDS011;55638;51.122;13.606;2023-02-01T07:41:36;8.10;;;5.78;;
68655;SDS011;55638;51.122;13.606;2023-02-01T07:43:08;5.88;;;5.25;;
68655;SDS011;55638;51.122;13.606;2023-02-01T07:44:40;5.45;;;4.82;;
68655;SDS011;55638;51.122;13.606;2023-02-01T07:46:12;6.45;;;5.18;;
68655;SDS011;55638;51.122;13.606;2023-02-01T07:47:47;5.60;;;5.13;;
68655;SDS011;55638;51.122;13.606;2023-02-01T07:49:19;6.70;;;5.90;;
68655;SDS011;55638;51.122;13.606;2023-02-01T07:50:57;6.05;;;5.47;;
68655;SDS011;55638;51.122;13.606;2023-02-01T07:52:31;8.20;;;4.68;;
68655;SDS011;55638;51.122;13.606;2023-02-01T07:54:02;7.75;;;5.45;;
68655;SDS011;55638;51.122;13.606;2023-02-01T07:55:37;6.32;;;5.32;;
68655;SDS011;55638;51.122;13.606;2023-02-01T07:57:09;7.22;;;4.88;;
68655;SDS011;55638;51.122;13.606;2023-02-01T07:58:43;6.40;;;5.80;;
68655;SDS011;55638;51.122;13.606;2023-02-01T08:00:19;6.82;;;5.13;;
68655;SDS011;55638;51.122;13.606;2023-02-01T08:02:10;4.40;;;4.00;;
68655;SDS011;55638;51.122;13.606;2023-02-01T08:03:42;6.60;;;4.93;;
68655;SDS011;55638;51.122;13.606;2023-02-01T08:05:14;6.20;;;5.43;;
68655;SDS011;55638;51.122;13.606;2023-02-01T08:06:46;6.22;;;5.72;;
68655;SDS011;55638;51.122;13.606;2023-02-01T08:08:17;5.72;;;5.20;;
68655;SDS011;55638;51.122;13.606;2023-02-01T08:09:49;6.72;;;6.13;;
68655;SDS011;55638;51.122;13.606;2023-02-01T08:11:21;6.95;;;6.00;;
68655;SDS011;55638;51.122;13.606;2023-02-01T08:12:57;7.03;;;5.35;;
68655;SDS011;55638;51.122;13.606;2023-02-01T08:14:31;7.43;;;5.97;;
68655;SDS011;55638;51.122;13.606;2023-02-01T08:16:04;9.05;;;5.82;;
68655;SDS011;55638;51.122;13.606;2023-02-01T08:17:38;8.25;;;6.10;;
68655;SDS011;55638;51.122;13.606;2023-02-01T08:19:09;7.30;;;5.85;;
68655;SDS011;55638;51.122;13.606;2023-02-01T08:20:41;7.63;;;5.55;;
68655;SDS011;55638;51.122;13.606;2023-02-01T08:22:14;8.90;;;5.50;;
68655;SDS011;55638;51.122;13.606;2023-02-01T08:23:46;6.63;;;5.50;;
68655;SDS011;55638;51.122;13.606;2023-02-01T08:25:18;6.35;;;4.85;;
68655;SDS011;55638;51.122;13.606;2023-02-01T08:26:50;6.80;;;6.07;;
68655;SDS011;55638;51.122;13.606;2023-02-01T08:28:22;5.70;;;5.18;;
68655;SDS011;55638;51.122;13.606;2023-02-01T08:29:54;8.80;;;5.30;;
68655;SDS011;55638;51.122;13.606;2023-02-01T08:31:26;6.43;;;5.65;;
68655;SDS011;55638;51.122;13.606;2023-02-01T08:33:00;6.47;;;5.47;;
68655;SDS011;55638;51.122;13.606;2023-02-01T08:34:32;6.10;;;5.60;;
68655;SDS011;55638;51.122;13.606;2023-02-01T08:36:07;7.05;;;5.72;;
68655;SDS011;55638;51.122;13.606;2023-02-01T08:37:40;8.25;;;6.07;;
68655;SDS011;55638;51.122;13.606;2023-02-01T08:39:12;6.97;;;6.15;;
68655;SDS011;55638;51.122;13.606;2023-02-01T08:40:43;6.57;;;5.88;;
68655;SDS011;55638;51.122;13.606;2023-02-01T08:42:17;7.50;;;5.35;;
68655;SDS011;55638;51.122;13.606;2023-02-01T08:44:08;8.77;;;4.82;;
68655;SDS011;55638;51.122;13.606;2023-02-01T08:45:39;9.63;;;5.80;;
68655;SDS011;55638;51.122;13.606;2023-02-01T08:47:11;7.18;;;5.80;;
68655;SDS011;55638;51.122;13.606;2023-02-01T08:48:45;7.97;;;6.43;;
68655;SDS011;55638;51.122;13.606;2023-02-01T08:50:17;6.47;;;5.63;;
68655;SDS011;55638;51.122;13.606;2023-02-01T08:51:50;9.35;;;6.70;;
68655;SDS011;55638;51.122;13.606;2023-02-01T08:53:23;8.07;;;6.47;;
68655;SDS011;55638;51.122;13.606;2023-02-01T08:54:55;9.55;;;6.30;;
68655;SDS011;55638;51.122;13.606;2023-02-01T08:56:26;8.50;;;6.18;;
68655;SDS011;55638;51.122;13.606;2023-02-01T08:57:58;6.60;;;5.65;;
68655;SDS011;55638;51.122;13.606;2023-02-01T08:59:30;8.73;;;7.90;;
68655;SDS011;55638;51.122;13.606;2023-02-01T09:01:02;10.05;;;6.43;;
68655;SDS011;55638;51.122;13.606;2023-02-01T09:02:35;7.63;;;6.93;;
68655;SDS011;55638;51.122;13.606;2023-02-01T09:04:07;9.75;;;7.85;;
68655;SDS011;55638;51.122;13.606;2023-02-01T09:05:39;8.77;;;7.15;;
68655;SDS011;55638;51.122;13.606;2023-02-01T09:07:20;8.27;;;7.53;;
68655;SDS011;55638;51.122;13.606;2023-02-01T09:08:52;9.73;;;7.15;;
68655;SDS011;55638;51.122;13.606;2023-02-01T09:10:24;7.97;;;7.28;;
68655;SDS011;55638;51.122;13.606;2023-02-01T09:12:05;7.63;;;6.75;;
68655;SDS011;55638;51.122;13.606;2023-02-01T09:13:37;10.40;;;6.97;;
68655;SDS011;55638;51.122;13.606;2023-02-01T09:15:09;9.20;;;7.50;;
68655;SDS011;55638;51.122;13.606;2023-02-01T09:16:41;9.20;;;7.82;;
68655;SDS011;55638;51.122;13.606;2023-02-01T09:18:13;10.15;;;9.10;;
68655;SDS011;55638;51.122;13.606;2023-02-01T09:19:44;11.38;;;7.82;;
68655;SDS011;55638;51.122;13.606;2023-02-01T09:21:16;10.27;;;8.55;;
68655;SDS011;55638;51.122;13.606;2023-02-01T09:22:48;7.88;;;7.03;;
68655;SDS011;55638;51.122;13.606;2023-02-01T09:24:21;9.00;;;8.10;;
68655;SDS011;55638;51.122;13.606;2023-02-01T09:25:53;8.57;;;7.80;;
68655;SDS011;55638;51.122;13.606;2023-02-01T09:27:24;8.43;;;7.07;;
68655;SDS011;55638;51.122;13.606;2023-02-01T09:28:56;9.85;;;8.70;;
68655;SDS011;55638;51.122;13.606;2023-02-01T09:30:28;9.40;;;8.43;;
68655;SDS011;55638;51.122;13.606;2023-02-01T09:32:01;9.52;;;8.57;;
68655;SDS011;55638;51.122;13.606;2023-02-01T09:33:35;8.90;;;8.10;;
68655;SDS011;55638;51.122;13.606;2023-02-01T09:35:07;9.20;;;8.50;;
68655;SDS011;55638;51.122;13.606;2023-02-01T09:36:38;9.20;;;8.43;;
68655;SDS011;55638;51.122;13.606;2023-02-01T09:38:10;8.15;;;7.38;;
68655;SDS011;55638;51.122;13.606;2023-02-01T09:39:42;9.48;;;8.68;;
68655;SDS011;55638;51.122;13.606;2023-02-01T09:42:02;8.50;;;7.75;;
68655;SDS011;55638;51.122;13.606;2023-02-01T09:46:45;7.80;;;6.88;;
68655;SDS011;55638;51.122;13.606;2023-02-01T09:48:24;9.07;;;8.38;;
68655;SDS011;55638;51.122;13.606;2023-02-01T09:50:08;7.88;;;6.65;;
68655;SDS011;55638;51.122;13.606;2023-02-01T09:51:52;6.25;;;5.72;;
68655;SDS011;55638;51.122;13.606;2023-02-01T09:55:06;7.22;;;6.53;;
68655;SDS011;55638;51.122;13.606;2023-02-01T09:56:49;7.22;;;6.72;;